Time;durP1;ratioP1;P1;durP2;ratioP2;P2;SDS_P1;SDS_P2;PMS_P1;PMS_P2;Temp;Humidity;BMP_temperature;BMP_pressure;BME280_temperature;BME280_humidity;BME280_pressure;Samples;Min_cycle;Max_cycle;Signal;HPM_P1;HPM_P2
2021/05/22 00:02:23;;;;;;;4.05;1.05;;;15.00;90.90;;;;;;5026466;28;20045;-66
2021/05/22 00:05:28;;;;;;;5.07;0.82;;;15.00;90.80;;;;;;5014439;28;20056;-66
2021/05/22 00:08:32;;;;;;;3.33;0.63;;;15.10;90.70;;;;;;5009607;28;20052;-66
2021/05/22 00:11:37;;;;;;;7.10;1.00;;;15.10;90.20;;;;;;5009915;28;20049;-66
2021/05/22 00:14:41;;;;;;;4.00;0.95;;;15.10;90.50;;;;;;5013389;28;20044;-66
2021/05/22 00:17:46;;;;;;;1.77;0.60;;;15.10;90.20;;;;;;5030302;28;20047;-66
2021/05/22 00:20:51;;;;;;;4.85;0.80;;;15.00;90.00;;;;;;5027443;28;20303;-66
2021/05/22 00:23:55;;;;;;;2.67;0.90;;;14.90;90.10;;;;;;5022510;28;20057;-67
2021/05/22 00:26:59;;;;;;;2.58;0.70;;;15.00;90.30;;;;;;5010461;28;20060;-66
2021/05/22 00:30:05;;;;;;;5.25;0.80;;;14.90;90.70;;;;;;5009980;28;20040;-67
2021/05/22 00:33:10;;;;;;;2.50;0.65;;;14.80;91.00;;;;;;5012436;28;20040;-66
2021/05/22 00:36:14;;;;;;;2.35;0.65;;;14.70;91.00;;;;;;5010030;28;20200;-67
2021/05/22 00:39:19;;;;;;;3.30;0.68;;;14.30;92.70;;;;;;5009015;28;20515;-66
2021/05/22 00:42:23;;;;;;;8.70;0.82;;;14.20;93.30;;;;;;5008944;28;20072;-66
2021/05/22 00:45:27;;;;;;;4.60;1.08;;;14.20;94.30;;;;;;5025411;28;20052;-66
2021/05/22 00:48:32;;;;;;;5.28;0.77;;;13.70;96.00;;;;;;4997428;28;20390;-66
2021/05/22 00:51:38;;;;;;;5.53;1.38;;;13.40;97.20;;;;;;5021042;28;20384;-67
2021/05/22 00:54:42;;;;;;;4.07;1.10;;;13.00;98.90;;;;;;5022143;28;20401;-66
2021/05/22 00:57:46;;;;;;;6.93;1.60;;;12.80;99.90;;;;;;4998067;28;20036;-66
2021/05/22 01:00:52;;;;;;;5.00;1.40;;;12.70;99.90;;;;;;5009165;28;20500;-66
2021/05/22 01:03:56;;;;;;;6.72;1.27;;;12.70;99.90;;;;;;5017433;28;20037;-66
2021/05/22 01:07:00;;;;;;;5.35;2.03;;;12.60;99.90;;;;;;5028626;28;20068;-66
2021/05/22 01:10:06;;;;;;;3.38;1.40;;;12.60;99.90;;;;;;5024703;28;20511;-66
2021/05/22 01:13:13;;;;;;;5.47;1.17;;;12.50;99.90;;;;;;5026099;28;20044;-66
2021/05/22 01:16:20;;;;;;;4.47;1.80;;;12.40;99.90;;;;;;5029525;28;20057;-66
2021/05/22 01:19:37;;;;;;;6.18;1.33;;;12.30;99.90;;;;;;5009583;28;20057;-66
2021/05/22 01:22:46;;;;;;;4.00;1.20;;;12.10;99.90;;;;;;5022935;28;20507;-66
2021/05/22 01:25:52;;;;;;;3.05;1.25;;;11.90;99.90;;;;;;5028542;28;20048;-66
2021/05/22 01:28:58;;;;;;;5.30;1.50;;;11.80;99.90;;;;;;5028892;28;20048;-66
2021/05/22 01:32:02;;;;;;;5.53;1.67;;;11.80;99.90;;;;;;5013456;28;20369;-66
2021/05/22 01:35:21;;;;;;;8.20;1.50;;;11.60;99.90;;;;;;5008748;28;20041;-66
2021/05/22 01:38:26;;;;;;;4.53;1.38;;;11.70;99.90;;;;;;5008491;28;20045;-66
2021/05/22 01:41:31;;;;;;;3.65;1.77;;;11.70;99.90;;;;;;5024564;28;20108;-66
2021/05/22 01:44:38;;;;;;;7.03;1.45;;;11.60;99.90;;;;;;5023989;28;20053;-66
2021/05/22 01:47:45;;;;;;;4.70;1.50;;;11.60;99.90;;;;;;5028298;28;20048;-66
2021/05/22 01:51:00;;;;;;;3.35;1.45;;;11.60;99.90;;;;;;5026319;28;20045;-66
2021/05/22 01:54:05;;;;;;;5.30;1.67;;;11.60;99.90;;;;;;5023644;28;20045;-66
2021/05/22 01:57:09;;;;;;;5.93;1.70;;;11.60;99.90;;;;;;5028206;28;20041;-66
2021/05/22 02:00:15;;;;;;;3.28;1.02;;;11.60;99.90;;;;;;5025324;28;20045;-65
2021/05/22 02:03:34;;;;;;;4.93;1.10;;;11.60;99.90;;;;;;5024555;28;20049;-66
2021/05/22 02:06:41;;;;;;;2.25;0.93;;;11.80;99.90;;;;;;5024971;28;20045;-65
2021/05/22 02:09:49;;;;;;;3.80;0.90;;;12.10;99.90;;;;;;5028164;28;20036;-66
2021/05/22 02:12:56;;;;;;;3.30;0.90;;;12.10;99.90;;;;;;5026507;28;20496;-65
2021/05/22 02:16:03;;;;;;;2.72;0.80;;;12.10;99.90;;;;;;5022377;28;20392;-66
2021/05/22 02:19:09;;;;;;;5.00;0.90;;;12.20;99.90;;;;;;5025244;28;20048;-66
2021/05/22 02:22:21;;;;;;;1.38;0.63;;;12.40;99.90;;;;;;5028111;28;20045;-66
2021/05/22 02:25:26;;;;;;;3.78;0.75;;;12.40;99.90;;;;;;5029311;28;20528;-66
2021/05/22 02:28:39;;;;;;;2.38;0.85;;;12.60;99.90;;;;;;5029092;28;20048;-66
2021/05/22 02:31:45;;;;;;;1.58;0.60;;;12.60;99.60;;;;;;5030860;28;20037;-66
2021/05/22 02:34:55;;;;;;;2.65;0.60;;;12.60;99.00;;;;;;5028278;28;20045;-66
2021/05/22 02:38:00;;;;;;;0.90;0.52;;;12.60;98.70;;;;;;5027683;28;20056;-65
2021/05/22 02:41:09;;;;;;;7.00;1.10;;;12.90;98.00;;;;;;5031058;28;20049;-66
2021/05/22 02:44:16;;;;;;;2.58;0.50;;;13.00;98.10;;;;;;5028905;28;20045;-65
2021/05/22 02:47:22;;;;;;;4.78;0.90;;;12.80;98.70;;;;;;5029576;28;20578;-66
2021/05/22 02:50:28;;;;;;;2.55;0.70;;;12.80;98.80;;;;;;5028379;28;20036;-66
2021/05/22 02:53:35;;;;;;;3.83;0.80;;;12.80;98.60;;;;;;5027817;28;20499;-66
2021/05/22 02:56:40;;;;;;;3.45;0.80;;;12.90;98.50;;;;;;5029078;28;20044;-66
2021/05/22 02:59:45;;;;;;;3.28;1.08;;;12.90;99.00;;;;;;5026866;28;20048;-65
2021/05/22 03:02:49;;;;;;;3.42;1.02;;;12.90;98.80;;;;;;5028519;28;20495;-66
2021/05/22 03:05:53;;;;;;;1.50;0.77;;;12.80;98.80;;;;;;5027783;28;20045;-65
2021/05/22 03:08:57;;;;;;;3.45;1.13;;;12.70;99.70;;;;;;5024436;28;20044;-66
2021/05/22 03:12:02;;;;;;;1.55;0.98;;;12.70;99.40;;;;;;5027407;28;20056;-66
2021/05/22 03:15:09;;;;;;;3.13;0.60;;;12.70;99.30;;;;;;5029274;28;20049;-65
2021/05/22 03:18:14;;;;;;;1.88;0.75;;;12.90;99.50;;;;;;5028704;28;20053;-66
2021/05/22 03:21:18;;;;;;;2.17;0.70;;;13.10;99.10;;;;;;5027975;28;20514;-65
2021/05/22 03:24:22;;;;;;;2.40;0.80;;;13.30;98.70;;;;;;5017907;28;20056;-66
2021/05/22 03:27:26;;;;;;;3.15;0.73;;;13.40;99.30;;;;;;5016757;28;20060;-66
2021/05/22 03:30:30;;;;;;;5.38;0.80;;;13.50;99.20;;;;;;5030074;28;20048;-66
2021/05/22 03:33:34;;;;;;;4.00;0.82;;;13.50;99.50;;;;;;5025934;28;20103;-66
2021/05/22 03:36:39;;;;;;;2.10;0.70;;;13.60;99.40;;;;;;5030164;28;20451;-66
2021/05/22 03:39:43;;;;;;;2.78;0.60;;;13.80;99.00;;;;;;5007744;28;20056;-66
2021/05/22 03:42:48;;;;;;;5.75;0.70;;;13.90;99.10;;;;;;5017825;28;20056;-67
2021/05/22 03:45:52;;;;;;;5.20;0.80;;;13.90;99.40;;;;;;5023802;28;20048;-66
2021/05/22 03:48:57;;;;;;;1.80;0.80;;;14.00;99.80;;;;;;5023172;28;20044;-66
2021/05/22 03:52:01;;;;;;;5.22;0.80;;;14.10;99.60;;;;;;5021701;28;20049;-65
2021/05/22 03:55:08;;;;;;;2.75;0.70;;;14.20;99.70;;;;;;5024346;28;20048;-66
2021/05/22 03:58:12;;;;;;;5.80;1.00;;;14.20;99.70;;;;;;5013793;28;20047;-66
2021/05/22 04:01:17;;;;;;;2.38;0.70;;;14.20;99.90;;;;;;5028918;28;20040;-65
2021/05/22 04:04:21;;;;;;;2.67;0.80;;;14.10;99.90;;;;;;5027699;28;20534;-66
2021/05/22 04:07:27;;;;;;;4.00;0.88;;;14.20;99.90;;;;;;5024847;28;20049;-66
2021/05/22 04:10:31;;;;;;;1.83;0.70;;;14.30;99.90;;;;;;5020477;28;20049;-67
2021/05/22 04:13:36;;;;;;;5.63;0.90;;;14.40;99.90;;;;;;5018603;28;20033;-66
2021/05/22 04:16:40;;;;;;;2.65;1.00;;;14.40;99.90;;;;;;5028246;28;20048;-66
2021/05/22 04:19:44;;;;;;;3.60;0.80;;;14.40;99.90;;;;;;5029863;28;20036;-66
2021/05/22 04:22:48;;;;;;;10.00;1.08;;;14.40;99.90;;;;;;5024604;28;20048;-68
2021/05/22 04:25:53;;;;;;;4.32;0.90;;;14.40;99.90;;;;;;5025745;28;20515;-65
2021/05/22 04:28:58;;;;;;;4.53;0.98;;;14.40;99.90;;;;;;5030367;28;20323;-66
2021/05/22 04:32:02;;;;;;;4.50;1.10;;;14.40;99.90;;;;;;5016435;28;20040;-66
2021/05/22 04:35:06;;;;;;;4.57;1.13;;;14.40;99.90;;;;;;5029196;28;20049;-65
2021/05/22 04:38:11;;;;;;;2.63;0.88;;;14.40;99.90;;;;;;5024561;28;20479;-66
2021/05/22 04:41:15;;;;;;;2.47;0.93;;;14.40;99.90;;;;;;5017869;28;20503;-66
2021/05/22 04:44:19;;;;;;;3.15;1.20;;;14.40;99.90;;;;;;5028148;28;20060;-67
2021/05/22 04:47:24;;;;;;;4.50;1.00;;;14.40;99.90;;;;;;5028640;28;20060;-66
2021/05/22 04:50:29;;;;;;;9.57;2.85;;;14.30;99.90;;;;;;5023583;28;20052;-67
2021/05/22 04:53:34;;;;;;;5.20;1.02;;;14.50;99.90;;;;;;5022314;28;20712;-66
2021/05/22 04:56:39;;;;;;;4.43;1.25;;;14.70;99.90;;;;;;5028820;28;20048;-66
2021/05/22 04:59:43;;;;;;;5.93;1.05;;;14.90;99.90;;;;;;5015357;28;20040;-66
2021/05/22 05:02:47;;;;;;;3.88;1.00;;;15.10;99.90;;;;;;5026614;28;20052;-67
2021/05/22 05:05:52;;;;;;;6.15;1.00;;;15.20;99.90;;;;;;5023464;28;20312;-67
2021/05/22 05:08:56;;;;;;;6.45;1.40;;;15.10;99.90;;;;;;5028292;28;20052;-66
2021/05/22 05:12:12;;;;;;;5.60;1.42;;;15.10;99.90;;;;;;5028551;28;20396;-68
2021/05/22 05:15:17;;;;;;;7.55;1.65;;;14.90;99.90;;;;;;5008683;28;20428;-66
2021/05/22 05:18:21;;;;;;;5.57;1.50;;;14.80;99.90;;;;;;5028983;28;20048;-66
2021/05/22 05:21:26;;;;;;;6.93;1.52;;;14.70;99.90;;;;;;5028632;28;20487;-67
2021/05/22 05:24:30;;;;;;;3.33;1.05;;;14.60;99.90;;;;;;5022508;28;20396;-66
2021/05/22 05:27:34;;;;;;;9.05;1.30;;;14.70;99.90;;;;;;5016146;28;20582;-67
2021/05/22 05:30:39;;;;;;;6.95;1.75;;;14.60;99.90;;;;;;5026869;28;20048;-67
2021/05/22 05:33:43;;;;;;;6.85;1.60;;;14.60;99.90;;;;;;5024154;28;20041;-66
2021/05/22 05:36:47;;;;;;;11.98;2.38;;;14.50;99.90;;;;;;5014728;28;20040;-66
2021/05/22 05:39:51;;;;;;;6.07;1.33;;;14.40;99.90;;;;;;5026322;28;20507;-66
2021/05/22 05:42:56;;;;;;;3.72;1.00;;;14.30;99.90;;;;;;5017418;28;20045;-66
2021/05/22 05:46:00;;;;;;;6.95;1.70;;;14.20;99.90;;;;;;5023021;28;20056;-66
2021/05/22 05:49:04;;;;;;;7.63;1.30;;;14.10;99.90;;;;;;5026617;28;20036;-66
2021/05/22 05:52:08;;;;;;;5.40;1.52;;;13.90;99.90;;;;;;5027164;28;20060;-65
2021/05/22 05:55:13;;;;;;;8.05;1.98;;;13.70;99.90;;;;;;5025121;28;20524;-66
2021/05/22 05:58:17;;;;;;;6.40;1.95;;;13.60;99.90;;;;;;5032530;28;20033;-67
2021/05/22 06:01:22;;;;;;;5.60;2.22;;;13.60;99.90;;;;;;5029174;28;20392;-66
2021/05/22 06:04:26;;;;;;;5.35;1.73;;;13.70;99.90;;;;;;5028701;28;20535;-66
2021/05/22 06:07:31;;;;;;;10.25;2.08;;;13.70;99.90;;;;;;5025795;28;20625;-68
2021/05/22 06:10:35;;;;;;;8.15;2.30;;;13.90;99.90;;;;;;5011561;28;20068;-66
2021/05/22 06:13:39;;;;;;;8.70;2.17;;;14.10;99.90;;;;;;5018650;28;20040;-66
2021/05/22 06:16:44;;;;;;;5.50;1.58;;;14.30;99.90;;;;;;5016279;28;20067;-65
2021/05/22 06:19:49;;;;;;;5.70;1.40;;;14.60;99.90;;;;;;5012685;28;20040;-65
2021/05/22 06:22:54;;;;;;;7.75;1.63;;;14.90;99.90;;;;;;5013550;28;20175;-66
2021/05/22 06:25:59;;;;;;;11.00;1.70;;;14.90;99.90;;;;;;5011776;28;20527;-66
2021/05/22 06:29:05;;;;;;;6.20;1.50;;;14.70;99.90;;;;;;5014012;28;20053;-66
2021/05/22 06:32:11;;;;;;;5.80;1.67;;;14.40;99.90;;;;;;5010366;28;20045;-66
2021/05/22 06:35:17;;;;;;;9.02;1.50;;;14.10;99.90;;;;;;5014525;28;20052;-66
2021/05/22 06:38:21;;;;;;;10.05;2.00;;;13.90;99.90;;;;;;5016027;28;20040;-66
2021/05/22 06:41:26;;;;;;;8.95;2.10;;;13.70;99.90;;;;;;5020280;28;20041;-67
2021/05/22 06:44:35;;;;;;;5.63;1.77;;;13.50;99.90;;;;;;5025598;28;20053;-66
2021/05/22 06:47:40;;;;;;;8.63;1.92;;;13.50;99.90;;;;;;5022540;28;20530;-66
2021/05/22 06:50:44;;;;;;;8.38;2.00;;;13.50;99.90;;;;;;5011796;28;20509;-66
2021/05/22 06:53:48;;;;;;;11.55;1.85;;;13.50;99.90;;;;;;5017954;28;20042;-66
2021/05/22 06:56:52;;;;;;;8.68;2.38;;;13.50;99.90;;;;;;5021934;28;20045;-65
2021/05/22 06:59:56;;;;;;;5.45;1.98;;;13.60;99.90;;;;;;5027153;28;20064;-66
2021/05/22 07:03:00;;;;;;;8.85;2.05;;;13.70;99.90;;;;;;5026103;28;20048;-66
2021/05/22 07:06:11;;;;;;;10.73;2.80;;;13.80;99.90;;;;;;5010613;28;21296;-66
2021/05/22 07:09:15;;;;;;;9.88;2.08;;;14.10;99.90;;;;;;5022153;28;20419;-66
2021/05/22 07:12:20;;;;;;;5.80;1.80;;;14.30;99.90;;;;;;5011764;28;20045;-66
2021/05/22 07:15:24;;;;;;;9.20;2.05;;;14.40;99.90;;;;;;5027040;28;20040;-66
2021/05/22 07:18:28;;;;;;;5.60;1.90;;;14.60;99.90;;;;;;5021262;28;20040;-66
2021/05/22 07:21:34;;;;;;;11.07;1.60;;;14.60;99.90;;;;;;5018710;28;20036;-67
2021/05/22 07:24:37;;;;;;;6.47;1.42;;;14.60;99.90;;;;;;5029479;28;20040;-65
2021/05/22 07:27:43;;;;;;;7.15;1.80;;;14.60;99.90;;;;;;5024018;28;20045;-67
2021/05/22 07:30:47;;;;;;;6.22;1.70;;;14.70;99.90;;;;;;5031084;28;20053;-66
2021/05/22 07:33:54;;;;;;;6.72;1.70;;;14.70;99.90;;;;;;5011173;28;20057;-66
2021/05/22 07:37:00;;;;;;;10.80;2.30;;;14.60;99.90;;;;;;5029495;28;20044;-67
2021/05/22 07:40:07;;;;;;;8.30;1.58;;;14.40;99.90;;;;;;5029239;28;20036;-66
2021/05/22 07:43:12;;;;;;;5.22;1.73;;;14.30;99.90;;;;;;5023861;28;20048;-66
2021/05/22 07:46:17;;;;;;;6.95;1.60;;;14.20;99.90;;;;;;5021399;28;20052;-66
2021/05/22 07:49:21;;;;;;;4.85;1.70;;;14.20;99.90;;;;;;5030058;28;20036;-67
2021/05/22 07:52:26;;;;;;;7.80;1.90;;;14.10;99.90;;;;;;5015181;28;20037;-66
2021/05/22 07:55:31;;;;;;;6.25;1.73;;;14.10;99.90;;;;;;5015180;28;20041;-66
2021/05/22 07:58:35;;;;;;;5.82;2.83;;;14.00;99.90;;;;;;5030495;28;20045;-66
2021/05/22 08:01:39;;;;;;;7.15;2.20;;;13.90;99.90;;;;;;5018363;28;20057;-66
2021/05/22 08:04:44;;;;;;;10.25;1.90;;;13.80;99.90;;;;;;5017054;28;20041;-66
2021/05/22 08:07:50;;;;;;;10.55;2.30;;;13.70;99.90;;;;;;5030780;28;20045;-66
2021/05/22 08:10:54;;;;;;;5.53;2.55;;;13.80;99.90;;;;;;5029772;28;20056;-67
2021/05/22 08:13:58;;;;;;;5.43;2.08;;;14.00;99.90;;;;;;5030270;28;20224;-67
2021/05/22 08:17:04;;;;;;;9.88;2.20;;;14.00;99.90;;;;;;5014274;28;20504;-66
2021/05/22 08:20:10;;;;;;;8.32;2.22;;;14.30;99.90;;;;;;5016082;28;20535;-67
2021/05/22 08:23:14;;;;;;;16.30;2.03;;;14.70;99.90;;;;;;5009320;28;20045;-66
2021/05/22 08:26:19;;;;;;;4.57;1.73;;;15.00;99.90;;;;;;5017785;28;20040;-66
2021/05/22 08:29:24;;;;;;;2.80;1.35;;;15.00;99.90;;;;;;5017337;28;20393;-66
2021/05/22 08:32:28;;;;;;;12.23;3.05;;;15.20;99.90;;;;;;5013693;28;20048;-66
2021/05/22 08:35:36;;;;;;;3.78;2.20;;;15.60;99.90;;;;;;5009342;28;20487;-67
2021/05/22 08:38:41;;;;;;;7.50;2.00;;;15.80;99.90;;;;;;5007631;28;20067;-66
2021/05/22 08:41:45;;;;;;;6.20;1.70;;;16.00;99.90;;;;;;4996809;28;20056;-66
2021/05/22 08:44:50;;;;;;;5.30;1.27;;;16.20;99.90;;;;;;5009240;28;20064;-67
2021/05/22 08:47:56;;;;;;;4.20;1.20;;;16.40;99.90;;;;;;5012496;28;20053;-65
2021/05/22 08:51:02;;;;;;;6.50;1.30;;;16.50;99.90;;;;;;5009283;28;20033;-66
2021/05/22 08:54:07;;;;;;;8.60;1.80;;;16.50;99.90;;;;;;5008434;28;20033;-66
2021/05/22 08:57:12;;;;;;;7.70;1.38;;;16.20;99.90;;;;;;5009449;28;20036;-66
2021/05/22 09:00:19;;;;;;;6.63;1.50;;;15.90;99.90;;;;;;5008578;28;20037;-66
2021/05/22 09:03:24;;;;;;;7.40;1.38;;;15.80;99.90;;;;;;5011635;28;20056;-66
2021/05/22 09:06:28;;;;;;;5.28;1.33;;;15.80;99.90;;;;;;5009164;28;20045;-67
2021/05/22 09:09:43;;;;;;;9.55;1.88;;;15.30;99.90;;;;;;5027005;28;20044;-66
2021/05/22 09:12:50;;;;;;;5.72;1.60;;;15.00;99.90;;;;;;5010480;28;20381;-65
2021/05/22 09:15:57;;;;;;;10.27;1.65;;;15.10;99.90;;;;;;5014050;28;20048;-65
2021/05/22 09:19:02;;;;;;;7.43;1.75;;;15.60;99.90;;;;;;5013080;28;20414;-66
2021/05/22 09:22:19;;;;;;;6.78;1.42;;;16.40;99.90;;;;;;5024667;28;20496;-67
2021/05/22 09:25:24;;;;;;;4.28;1.13;;;17.70;99.90;;;;;;5012787;28;20045;-67
2021/05/22 09:28:59;;;;;;;5.07;1.02;;;20.50;99.90;;;;;;5015714;28;20064;-68
2021/05/22 09:32:13;;;;;;;6.38;1.40;;;21.70;99.90;;;;;;5024764;28;20041;-67
2021/05/22 09:35:20;;;;;;;4.00;1.20;;;22.60;99.90;;;;;;5027530;28;20049;-67
2021/05/22 09:38:43;;;;;;;5.70;1.20;;;22.80;99.90;;;;;;5004996;28;20033;-66
2021/05/22 09:41:48;;;;;;;5.28;1.40;;;22.80;99.90;;;;;;5023551;28;20507;-66
2021/05/22 09:44:53;;;;;;;5.63;1.38;;;21.90;99.90;;;;;;5015753;28;20458;-66
2021/05/22 09:48:18;;;;;;;8.18;1.35;;;20.80;99.90;;;;;;5020081;28;20080;-67
2021/05/22 09:51:24;;;;;;;5.35;1.30;;;21.40;99.90;;;;;;5027975;28;20037;-67
2021/05/22 09:54:51;;;;;;;4.10;1.15;;;23.00;99.90;;;;;;5016957;28;20040;-67
2021/05/22 09:57:56;;;;;;;2.85;1.20;;;23.00;99.40;;;;;;5013931;28;20045;-67
2021/05/22 10:01:01;;;;;;;7.70;2.17;;;22.10;99.10;;;;;;5011957;28;20036;-66
2021/05/22 10:04:20;;;;;;;6.45;1.52;;;20.40;99.90;;;;;;5018095;28;20045;-67
2021/05/22 10:07:34;;;;;;;8.65;2.03;;;20.00;99.90;;;;;;5018792;28;20108;-66
2021/05/22 10:10:51;;;;;;;6.22;1.35;;;20.20;99.90;;;;;;5016812;28;20040;-66
2021/05/22 10:13:56;;;;;;;9.75;1.42;;;20.30;99.90;;;;;;5029759;28;20048;-66
2021/05/22 10:17:02;;;;;;;6.57;1.33;;;21.00;99.90;;;;;;5026866;28;20511;-67
2021/05/22 10:20:07;;;;;;;6.65;1.58;;;22.10;99.90;;;;;;5023864;28;20060;-67
2021/05/22 10:23:12;;;;;;;4.63;1.48;;;22.20;99.90;;;;;;5022610;28;20049;-66
2021/05/22 10:26:16;;;;;;;5.32;1.85;;;21.50;99.90;;;;;;5019450;28;20056;-67
2021/05/22 10:29:22;;;;;;;4.22;1.67;;;20.80;99.90;;;;;;5028616;28;20602;-65
2021/05/22 10:32:27;;;;;;;5.80;1.92;;;21.10;99.90;;;;;;5023513;28;20040;-67
2021/05/22 10:35:48;;;;;;;8.10;2.05;;;21.50;99.90;;;;;;5013581;28;20041;-65
2021/05/22 10:38:52;;;;;;;9.57;2.15;;;21.60;99.90;;;;;;5012719;28;20052;-66
2021/05/22 10:41:57;;;;;;;6.07;1.80;;;20.80;99.90;;;;;;5017094;28;20511;-66
2021/05/22 10:45:24;;;;;;;8.55;1.65;;;20.30;99.90;;;;;;5017609;28;20036;-65
2021/05/22 10:48:27;;;;;;;12.13;2.25;;;20.10;99.90;;;;;;5019405;28;20052;-65
2021/05/22 10:51:35;;;;;;;10.02;1.88;;;19.40;99.90;;;;;;5010562;28;21077;-67
2021/05/22 10:54:58;;;;;;;7.30;1.75;;;19.30;99.90;;;;;;5019811;28;20337;-67
2021/05/22 10:58:03;;;;;;;7.57;1.70;;;19.60;99.90;;;;;;5004201;28;20048;-67
2021/05/22 11:01:41;;;;;;;9.85;1.83;;;19.10;99.90;;;;;;5016257;28;20057;-66
2021/05/22 11:04:45;;;;;;;8.80;1.85;;;20.10;99.90;;;;;;5008276;28;20045;-66
2021/05/22 11:08:04;;;;;;;5.13;1.75;;;20.20;99.90;;;;;;5031248;28;20056;-66
2021/05/22 11:11:32;;;;;;;8.40;1.80;;;20.30;99.90;;;;;;5027021;28;20052;-66
2021/05/22 11:14:40;;;;;;;8.25;2.35;;;20.00;99.90;;;;;;5028071;28;20036;-66
2021/05/22 11:17:44;;;;;;;7.47;2.00;;;20.50;99.90;;;;;;5025839;28;20040;-67
2021/05/22 11:21:15;;;;;;;8.40;1.85;;;20.90;99.90;;;;;;5030751;28;20044;-68
2021/05/22 11:24:21;;;;;;;9.90;2.40;;;20.00;99.90;;;;;;5021483;28;20052;-67
2021/05/22 11:27:44;;;;;;;9.20;2.63;;;19.80;99.90;;;;;;5028998;28;20052;-67
2021/05/22 11:30:57;;;;;;;14.00;1.80;;;20.30;99.90;;;;;;5028002;28;20040;-67
2021/05/22 11:34:23;;;;;;;6.68;2.28;;;20.60;99.90;;;;;;5019303;28;20139;-67
2021/05/22 11:37:32;;;;;;;9.00;2.17;;;20.30;99.90;;;;;;5019019;28;20491;-64
2021/05/22 11:40:37;;;;;;;8.48;2.33;;;20.90;99.90;;;;;;5017577;28;20396;-67
2021/05/22 11:43:44;;;;;;;9.25;2.13;;;21.20;99.90;;;;;;5031022;28;20392;-67
2021/05/22 11:46:52;;;;;;;8.80;2.08;;;20.60;99.90;;;;;;5030513;28;20057;-66
2021/05/22 11:49:58;;;;;;;11.57;3.92;;;20.90;99.90;;;;;;5030384;28;20052;-66
2021/05/22 11:53:13;;;;;;;9.43;2.67;;;21.00;99.90;;;;;;5022623;28;20045;-67
2021/05/22 11:56:18;;;;;;;6.15;1.92;;;20.10;99.90;;;;;;5029402;28;20372;-66
2021/05/22 11:59:23;;;;;;;12.07;2.88;;;20.60;99.90;;;;;;5018211;28;20044;-66
2021/05/22 12:02:37;;;;;;;9.38;2.45;;;20.30;99.90;;;;;;5018361;28;20041;-66
2021/05/22 12:05:44;;;;;;;12.73;2.75;;;20.50;99.90;;;;;;5010794;28;20807;-67
2021/05/22 12:09:15;;;;;;;8.85;2.17;;;20.30;99.90;;;;;;5019482;28;20095;-66
2021/05/22 12:12:29;;;;;;;9.18;2.28;;;20.30;99.90;;;;;;5017861;28;20392;-67
2021/05/22 12:15:35;;;;;;;9.95;2.25;;;20.30;99.90;;;;;;5030269;28;20523;-67
2021/05/22 12:18:40;;;;;;;7.82;2.40;;;20.10;99.90;;;;;;5007128;28;20580;-67
2021/05/22 12:21:49;;;;;;;8.07;2.17;;;20.40;99.90;;;;;;5030398;28;20396;-67
2021/05/22 12:24:57;;;;;;;6.95;2.20;;;20.20;99.90;;;;;;5016671;28;20052;-66
2021/05/22 12:28:02;;;;;;;10.93;2.50;;;20.10;99.90;;;;;;5007104;28;21435;-67
2021/05/22 12:31:07;;;;;;;12.32;2.72;;;20.30;99.90;;;;;;5014600;28;20500;-67
2021/05/22 12:34:12;;;;;;;13.15;3.20;;;20.30;99.90;;;;;;5019262;28;20040;-66
2021/05/22 12:37:24;;;;;;;11.57;2.70;;;19.80;99.90;;;;;;5026719;28;20048;-67
2021/05/22 12:40:44;;;;;;;11.57;3.00;;;20.20;99.90;;;;;;5027129;28;20405;-66
2021/05/22 12:43:51;;;;;;;12.05;3.30;;;19.60;99.90;;;;;;5028734;28;20064;-65
2021/05/22 12:46:57;;;;;;;13.00;3.88;;;19.60;99.90;;;;;;5029091;28;20060;-66
2021/05/22 12:50:07;;;;;;;18.10;4.28;;;19.70;99.90;;;;;;4990673;28;20072;-66
2021/05/22 12:53:11;;;;;;;13.35;4.00;;;19.60;99.90;;;;;;5028790;28;20052;-65
2021/05/22 12:56:19;;;;;;;13.73;4.40;;;19.40;99.90;;;;;;5027903;28;20068;-65
2021/05/22 12:59:23;;;;;;;21.85;4.90;;;19.40;99.90;;;;;;5028234;28;20041;-65
2021/05/22 13:02:29;;;;;;;18.50;4.22;;;19.50;99.90;;;;;;5028693;28;20044;-67
2021/05/22 13:05:36;;;;;;;19.83;4.82;;;20.00;99.90;;;;;;5028543;28;20048;-66
2021/05/22 13:08:41;;;;;;;14.02;4.07;;;19.90;99.90;;;;;;5018198;28;20064;-66
2021/05/22 13:12:03;;;;;;;15.82;4.20;;;20.10;99.90;;;;;;5015327;28;20399;-64
2021/05/22 13:15:17;;;;;;;15.52;4.30;;;20.20;99.90;;;;;;5022578;28;20045;-67
2021/05/22 13:18:23;;;;;;;16.85;4.18;;;20.50;99.90;;;;;;5023396;28;20094;-67
2021/05/22 13:21:32;;;;;;;13.70;3.50;;;20.60;99.90;;;;;;5014188;28;20048;-66
2021/05/22 13:24:37;;;;;;;13.88;3.47;;;20.60;99.90;;;;;;5016515;28;20401;-65
2021/05/22 13:28:04;;;;;;;7.45;3.42;;;20.70;99.90;;;;;;5012494;28;20084;-66
2021/05/22 13:31:25;;;;;;;13.23;3.33;;;20.50;99.90;;;;;;5015051;28;20041;-66
2021/05/22 13:34:30;;;;;;;15.88;3.72;;;20.40;99.90;;;;;;5032143;28;20260;-65
2021/05/22 13:37:34;;;;;;;13.43;3.17;;;20.70;99.90;;;;;;5012668;28;20048;-66
2021/05/22 13:40:43;;;;;;;17.08;4.85;;;20.70;99.90;;;;;;5018129;28;20044;-65
2021/05/22 13:43:47;;;;;;;19.80;4.10;;;20.80;99.90;;;;;;5014243;28;20084;-66
2021/05/22 13:46:52;;;;;;;16.35;3.20;;;21.20;99.90;;;;;;5009780;28;20057;-65
2021/05/22 13:49:57;;;;;;;14.15;3.80;;;21.40;99.90;;;;;;5012503;28;20048;-66
2021/05/22 13:53:01;;;;;;;12.70;3.53;;;21.20;99.90;;;;;;5014066;28;20058;-66
2021/05/22 13:56:05;;;;;;;18.60;4.10;;;20.50;99.90;;;;;;5013121;28;20036;-65
2021/05/22 13:59:09;;;;;;;21.90;5.63;;;19.70;99.90;;;;;;5014899;28;20049;-66
2021/05/22 14:02:14;;;;;;;27.27;6.65;;;19.60;99.90;;;;;;5013778;28;20049;-65
2021/05/22 14:05:18;;;;;;;14.82;3.67;;;19.80;99.90;;;;;;5011932;28;20044;-65
2021/05/22 14:08:23;;;;;;;11.15;3.42;;;19.70;99.90;;;;;;5011272;28;20045;-65
2021/05/22 14:11:27;;;;;;;16.23;4.20;;;19.70;99.90;;;;;;5011492;28;20412;-65
2021/05/22 14:14:32;;;;;;;16.83;3.80;;;20.60;99.90;;;;;;5017741;28;20049;-65
2021/05/22 14:17:38;;;;;;;13.90;4.20;;;21.00;99.90;;;;;;5018760;28;20045;-65
2021/05/22 14:20:43;;;;;;;17.35;3.80;;;20.90;99.90;;;;;;5009562;28;20045;-66
2021/05/22 14:23:47;;;;;;;12.57;3.10;;;21.00;99.90;;;;;;5028973;28;20064;-65
2021/05/22 14:26:52;;;;;;;13.80;3.58;;;21.30;99.90;;;;;;5025676;28;20045;-65
2021/05/22 14:29:57;;;;;;;18.85;4.20;;;20.80;99.90;;;;;;5021384;28;20052;-67
2021/05/22 14:33:01;;;;;;;12.10;3.95;;;21.10;99.90;;;;;;5025448;28;20044;-66
2021/05/22 14:36:05;;;;;;;13.18;3.60;;;21.40;99.90;;;;;;5026006;28;20049;-68
2021/05/22 14:39:10;;;;;;;14.45;3.35;;;21.40;99.90;;;;;;5025912;28;20033;-66
2021/05/22 14:42:15;;;;;;;15.15;3.65;;;21.00;99.90;;;;;;5029986;28;20053;-67
2021/05/22 14:45:20;;;;;;;18.45;4.38;;;20.90;99.90;;;;;;5023102;28;20041;-67
2021/05/22 14:48:28;;;;;;;14.80;3.88;;;19.90;99.90;;;;;;5026327;28;20491;-66
2021/05/22 14:51:32;;;;;;;17.95;4.15;;;19.50;99.90;;;;;;5023139;28;20522;-67
2021/05/22 14:54:36;;;;;;;18.63;4.95;;;19.80;99.90;;;;;;5026701;28;20381;-67
2021/05/22 14:57:41;;;;;;;18.65;4.57;;;20.10;99.90;;;;;;5024624;28;20503;-67
2021/05/22 15:00:45;;;;;;;14.25;4.70;;;20.10;99.90;;;;;;5022926;28;20056;-68
2021/05/22 15:03:50;;;;;;;16.52;4.20;;;19.70;99.90;;;;;;5020951;28;20056;-67
2021/05/22 15:06:56;;;;;;;12.05;3.67;;;19.80;99.90;;;;;;5020513;28;20040;-66
2021/05/22 15:10:01;;;;;;;17.50;4.28;;;19.80;99.90;;;;;;5026177;28;20080;-67
2021/05/22 15:13:05;;;;;;;16.65;3.70;;;19.90;99.90;;;;;;5020081;28;20045;-67
2021/05/22 15:16:09;;;;;;;12.52;4.38;;;19.80;99.90;;;;;;5000941;28;20045;-67
2021/05/22 15:19:16;;;;;;;24.45;5.43;;;19.70;99.90;;;;;;5021304;28;20045;-67
2021/05/22 15:22:21;;;;;;;18.75;4.20;;;19.50;99.90;;;;;;5022466;28;20044;-67
2021/05/22 15:25:30;;;;;;;19.30;3.80;;;19.60;99.90;;;;;;5011660;28;20041;-67
2021/05/22 15:28:36;;;;;;;17.08;4.30;;;19.50;99.90;;;;;;5026351;28;20400;-68
2021/05/22 15:31:42;;;;;;;22.35;4.68;;;19.80;99.90;;;;;;5023897;28;20385;-68
2021/05/22 15:34:46;;;;;;;19.42;4.57;;;20.30;99.90;;;;;;5010749;28;20049;-67
2021/05/22 15:37:51;;;;;;;20.13;3.85;;;20.40;99.90;;;;;;5023169;28;20514;-66
2021/05/22 15:40:57;;;;;;;18.65;5.03;;;20.30;99.90;;;;;;5013112;28;20361;-66
2021/05/22 15:44:04;;;;;;;23.38;4.80;;;20.10;99.90;;;;;;5014436;28;20064;-66
2021/05/22 15:47:09;;;;;;;18.15;3.70;;;20.70;99.90;;;;;;5014753;28;20060;-66
2021/05/22 16:07:26;;;;;;;13.87;3.80;;;21.40;99.90;;;;;;5017379;28;20365;-66
2021/05/22 16:10:30;;;;;;;21.00;3.88;;;20.90;99.90;;;;;;5025422;28;20056;-64
2021/05/22 16:13:35;;;;;;;17.45;3.80;;;20.30;99.90;;;;;;5023276;28;20053;-66
2021/05/22 16:16:41;;;;;;;21.33;4.50;;;20.50;99.90;;;;;;5017576;28;20060;-66
2021/05/22 16:19:46;;;;;;;16.27;3.92;;;20.10;99.90;;;;;;5020079;28;20041;-65
2021/05/22 16:22:50;;;;;;;18.75;3.72;;;20.30;99.90;;;;;;5025022;28;20041;-64
2021/05/22 16:25:56;;;;;;;16.88;4.40;;;19.80;99.90;;;;;;5026304;28;20496;-64